Time;durP1;ratioP1;P1;durP2;ratioP2;P2;SDS_P1;SDS_P2;PMS_P1;PMS_P2;Temp;Humidity;BMP_temperature;BMP_pressure;BME280_temperature;BME280_humidity;BME280_pressure;Samples;Min_cycle;Max_cycle;Signal;HPM_P1;HPM_P2
2022/05/24 00:02:05;;;;;;;1.83;1.60;;;;;;;;;;4985577;28;20029;-75
2022/05/24 00:04:30;;;;;;;2.35;1.83;;;;;;;;;;5002256;28;20084;-76
2022/05/24 00:06:56;;;;;;;1.90;1.80;;;;;;;;;;5002194;28;20037;-73
2022/05/24 00:09:21;;;;;;;2.85;1.90;;;;;;;;;;4996387;28;20044;-72
2022/05/24 00:11:46;;;;;;;2.30;1.88;;;;;;;;;;5008693;28;20116;-73
2022/05/24 00:14:12;;;;;;;4.50;2.00;;;;;;;;;;5002849;28;20036;-71
2022/05/24 00:16:37;;;;;;;3.08;1.80;;;;;;;;;;5014560;28;20404;-77
2022/05/24 00:19:03;;;;;;;2.05;1.83;;;;;;;;;;5002181;28;20129;-75
2022/05/24 00:21:28;;;;;;;2.92;1.95;;;;;;;;;;4991127;28;20030;-74
2022/05/24 00:23:53;;;;;;;1.60;1.50;;;;;;;;;;4989435;28;20026;-74
2022/05/24 00:26:28;;;;;;;3.72;1.98;;;;;;;;;;4986821;28;20029;-72
2022/05/24 00:28:53;;;;;;;2.58;1.55;;;;;;;;;;4988042;28;20132;-74
2022/05/24 00:31:19;;;;;;;2.25;1.90;;;;;;;;;;4987534;28;20112;-74
2022/05/24 00:33:44;;;;;;;2.47;1.98;;;;;;;;;;4987318;28;20030;-73
2022/05/24 00:36:10;;;;;;;1.70;1.60;;;;;;;;;;4996609;28;21018;-75
2022/05/24 00:38:39;;;;;;;3.75;2.38;;;;;;;;;;5002892;28;20091;-71
2022/05/24 00:41:05;;;;;;;3.88;2.35;;;;;;;;;;4977276;28;20050;-74
2022/05/24 00:43:45;;;;;;;2.88;2.10;;;;;;;;;;5001569;28;20459;-71
2022/05/24 00:46:22;;;;;;;3.13;2.13;;;;;;;;;;4996959;28;20018;-72
2022/05/24 00:49:08;;;;;;;4.30;2.50;;;;;;;;;;5002453;28;20034;-72
2022/05/24 00:51:39;;;;;;;4.38;2.88;;;;;;;;;;4999702;28;20022;-73
2022/05/24 00:54:04;;;;;;;4.47;2.33;;;;;;;;;;5001110;28;20061;-75
2022/05/24 00:56:52;;;;;;;2.20;2.00;;;;;;;;;;5001870;28;20100;-72
2022/05/24 00:59:56;;;;;;;2.15;1.95;;;;;;;;;;5005135;28;20064;-77
2022/05/24 01:02:21;;;;;;;2.22;2.03;;;;;;;;;;4931551;29;20523;-71
2022/05/24 01:04:47;;;;;;;2.00;1.80;;;;;;;;;;4923301;29;20031;-71
2022/05/24 01:07:12;;;;;;;1.98;1.85;;;;;;;;;;4958890;28;20068;-72
2022/05/24 01:09:45;;;;;;;2.47;1.83;;;;;;;;;;5004578;28;20445;-77
2022/05/24 01:12:14;;;;;;;1.95;1.73;;;;;;;;;;5010093;28;20049;-73
2022/05/24 01:14:40;;;;;;;1.98;1.60;;;;;;;;;;5015227;28;20017;-74
2022/05/24 01:17:06;;;;;;;3.60;1.85;;;;;;;;;;5004494;28;20373;-78
2022/05/24 01:19:43;;;;;;;3.33;1.83;;;;;;;;;;5007800;28;20025;-72
2022/05/24 01:22:25;;;;;;;3.90;1.83;;;;;;;;;;5002423;28;20116;-72
2022/05/24 01:24:59;;;;;;;2.40;1.95;;;;;;;;;;5003787;28;20397;-75
2022/05/24 01:27:24;;;;;;;2.85;1.90;;;;;;;;;;5017227;28;20037;-73
2022/05/24 01:29:49;;;;;;;4.47;1.90;;;;;;;;;;5017625;28;20064;-72
2022/05/24 01:37:42;;;;;;;2.25;1.92;;;;;;;;;;5005489;28;20068;-76
2022/05/24 01:40:08;;;;;;;3.40;1.92;;;;;;;;;;5010788;28;20057;-73
2022/05/24 01:42:34;;;;;;;2.33;2.00;;;;;;;;;;5007721;28;20460;-72
2022/05/24 01:45:11;;;;;;;3.33;2.00;;;;;;;;;;5007325;28;20420;-73
2022/05/24 01:47:38;;;;;;;1.98;1.88;;;;;;;;;;5019378;28;20120;-71
2022/05/24 01:50:06;;;;;;;1.80;1.70;;;;;;;;;;5015533;28;20013;-76
2022/05/24 01:52:31;;;;;;;2.00;1.90;;;;;;;;;;5009595;28;20376;-71
2022/05/24 01:55:20;;;;;;;2.50;2.00;;;;;;;;;;5019961;28;20050;-74
2022/05/24 01:57:48;;;;;;;2.00;1.90;;;;;;;;;;4996038;28;20038;-71
2022/05/24 02:00:14;;;;;;;3.03;2.30;;;;;;;;;;4992952;28;20065;-72
2022/05/24 02:02:40;;;;;;;2.80;1.95;;;;;;;;;;5010345;28;20029;-73
2022/05/24 02:05:06;;;;;;;3.28;2.42;;;;;;;;;;5009788;28;20422;-72
2022/05/24 02:07:33;;;;;;;2.20;2.00;;;;;;;;;;5009948;28;20133;-70
2022/05/24 02:09:58;;;;;;;2.83;1.85;;;;;;;;;;5000922;28;20034;-76
2022/05/24 02:12:36;;;;;;;1.85;1.75;;;;;;;;;;5002008;28;20030;-74
2022/05/24 02:15:01;;;;;;;2.85;2.10;;;;;;;;;;4995243;28;20029;-74
2022/05/24 02:17:29;;;;;;;2.53;2.08;;;;;;;;;;5000948;28;20676;-70
2022/05/24 02:19:56;;;;;;;2.17;1.58;;;;;;;;;;5004899;28;20019;-76
2022/05/24 02:22:24;;;;;;;2.00;1.83;;;;;;;;;;5012658;28;20440;-74
2022/05/24 02:25:02;;;;;;;2.25;1.90;;;;;;;;;;5015363;28;20100;-71
2022/05/24 02:27:28;;;;;;;2.10;1.90;;;;;;;;;;5004370;28;20025;-73
2022/05/24 02:29:53;;;;;;;2.00;1.90;;;;;;;;;;5006827;28;20029;-72
2022/05/24 02:32:19;;;;;;;1.95;1.70;;;;;;;;;;4997602;28;20048;-72
2022/05/24 02:34:44;;;;;;;3.28;1.98;;;;;;;;;;5002106;28;20022;-72
2022/05/24 02:37:10;;;;;;;2.78;2.08;;;;;;;;;;5002817;28;21306;-72
2022/05/24 02:41:28;;;;;;;2.42;2.22;;;;;;;;;;5004687;28;20026;-71
2022/05/24 02:42:20;;;;;;;2.38;2.15;;;;;;;;;;5003808;28;20461;-73
2022/05/24 02:44:46;;;;;;;3.35;2.00;;;;;;;;;;5000638;28;20248;-72
2022/05/24 02:47:11;;;;;;;2.80;2.35;;;;;;;;;;5010141;28;20456;-77
2022/05/24 02:49:36;;;;;;;2.33;2.10;;;;;;;;;;5002363;28;20437;-75
2022/05/24 02:52:02;;;;;;;3.05;2.08;;;;;;;;;;5004819;28;20095;-74
2022/05/24 02:54:27;;;;;;;2.08;1.92;;;;;;;;;;4972815;28;20140;-73
2022/05/24 02:56:52;;;;;;;2.15;1.98;;;;;;;;;;4972717;28;20168;-74
2022/05/24 02:59:18;;;;;;;3.15;2.13;;;;;;;;;;4955519;28;20022;-73
2022/05/24 03:01:43;;;;;;;3.97;2.13;;;;;;;;;;4964558;28;20034;-71
2022/05/24 03:04:08;;;;;;;4.00;2.35;;;;;;;;;;4973145;28;20649;-73
2022/05/24 03:09:33;;;;;;;4.22;2.40;;;;;;;;;;4974148;28;20042;-72
2022/05/24 03:14:57;;;;;;;2.90;2.53;;;;;;;;;;4973592;28;20539;-73
2022/05/24 03:17:23;;;;;;;3.42;2.60;;;;;;;;;;4973563;28;20070;-74
2022/05/24 03:19:49;;;;;;;3.60;2.17;;;;;;;;;;4974400;28;20041;-73
2022/05/24 03:22:14;;;;;;;2.50;2.22;;;;;;;;;;4970922;28;20022;-72
2022/05/24 03:24:40;;;;;;;3.10;2.30;;;;;;;;;;4975595;28;20050;-71
2022/05/24 03:27:11;;;;;;;2.22;2.03;;;;;;;;;;4961717;28;20031;-76
2022/05/24 03:29:37;;;;;;;2.40;2.20;;;;;;;;;;4971127;28;20075;-77
2022/05/24 03:32:02;;;;;;;2.95;2.05;;;;;;;;;;4957146;28;20031;-71
2022/05/24 03:34:27;;;;;;;3.63;2.30;;;;;;;;;;4976106;28;20589;-77
2022/05/24 03:36:53;;;;;;;2.50;2.17;;;;;;;;;;4970188;28;20478;-73
2022/05/24 03:39:18;;;;;;;2.53;2.33;;;;;;;;;;4965655;28;20026;-73
2022/05/24 03:41:45;;;;;;;2.83;2.53;;;;;;;;;;4970562;28;20069;-72
2022/05/24 03:44:11;;;;;;;3.30;2.58;;;;;;;;;;4974647;28;20419;-74
2022/05/24 03:46:37;;;;;;;3.35;2.50;;;;;;;;;;4957852;28;20098;-78
2022/05/24 03:49:03;;;;;;;5.28;3.15;;;;;;;;;;4971292;28;20066;-73
2022/05/24 03:51:29;;;;;;;4.38;2.78;;;;;;;;;;4971666;28;20061;-72
2022/05/24 03:53:54;;;;;;;3.05;2.83;;;;;;;;;;4988208;28;20049;-72
2022/05/24 03:56:19;;;;;;;3.95;2.35;;;;;;;;;;4987813;28;20134;-71
2022/05/24 03:58:45;;;;;;;2.97;2.53;;;;;;;;;;4986235;28;20352;-71
2022/05/24 04:01:10;;;;;;;2.40;2.20;;;;;;;;;;4984432;28;20454;-75
2022/05/24 04:03:36;;;;;;;2.95;2.20;;;;;;;;;;4987293;28;20569;-73
2022/05/24 04:06:01;;;;;;;2.15;1.92;;;;;;;;;;4990954;28;20392;-77
2022/05/24 04:08:29;;;;;;;2.25;1.92;;;;;;;;;;4992573;28;20030;-72
2022/05/24 04:11:00;;;;;;;4.50;1.80;;;;;;;;;;4997257;28;20345;-71
2022/05/24 04:13:25;;;;;;;2.03;1.60;;;;;;;;;;5003363;28;20029;-73
2022/05/24 04:15:51;;;;;;;2.10;1.85;;;;;;;;;;4997185;28;20400;-75
2022/05/24 04:18:16;;;;;;;2.22;1.75;;;;;;;;;;5012710;28;20030;-71
2022/05/24 04:20:41;;;;;;;2.00;1.80;;;;;;;;;;5009399;28;20344;-75
2022/05/24 04:23:10;;;;;;;2.08;1.88;;;;;;;;;;4988652;28;20026;-73
2022/05/24 04:25:37;;;;;;;4.10;1.80;;;;;;;;;;4987694;28;20029;-72
2022/05/24 04:28:02;;;;;;;1.98;1.73;;;;;;;;;;4985316;28;20077;-72
2022/05/24 04:30:27;;;;;;;2.97;1.60;;;;;;;;;;4989442;28;20061;-74
2022/05/24 04:32:53;;;;;;;2.58;1.52;;;;;;;;;;4995235;28;20036;-72
2022/05/24 04:35:18;;;;;;;2.17;1.92;;;;;;;;;;4994826;28;20026;-72
2022/05/24 04:37:43;;;;;;;1.65;1.48;;;;;;;;;;5012410;28;20033;-71
2022/05/24 04:40:09;;;;;;;3.42;1.48;;;;;;;;;;5003613;28;20073;-72
2022/05/24 04:42:35;;;;;;;2.35;1.65;;;;;;;;;;4996206;28;20113;-77
2022/05/24 04:45:01;;;;;;;1.80;1.70;;;;;;;;;;4990987;28;20025;-72
2022/05/24 04:47:31;;;;;;;3.50;1.63;;;;;;;;;;5003984;28;20041;-77
2022/05/24 04:49:56;;;;;;;;;;;;;;;;;;5002167;28;20033;-71
2022/05/24 04:52:23;;;;;;;3.45;2.53;;;;;;;;;;4987651;28;20256;-78
2022/05/24 04:54:49;;;;;;;2.05;1.73;;;;;;;;;;5009258;28;20092;-74
2022/05/24 04:57:15;;;;;;;1.95;1.85;;;;;;;;;;5007240;28;20057;-74
2022/05/24 04:59:40;;;;;;;2.50;1.80;;;;;;;;;;5002489;28;20437;-72
2022/05/24 05:02:06;;;;;;;3.63;1.75;;;;;;;;;;5005613;28;20030;-75
2022/05/24 05:04:31;;;;;;;2.80;1.80;;;;;;;;;;5008577;28;20033;-74
2022/05/24 05:06:57;;;;;;;3.33;2.20;;;;;;;;;;5013277;28;20026;-73
2022/05/24 05:09:22;;;;;;;2.00;1.80;;;;;;;;;;5019572;28;20037;-74
2022/05/24 05:11:48;;;;;;;2.22;1.80;;;;;;;;;;5017638;28;20030;-73
2022/05/24 05:14:13;;;;;;;2.50;2.15;;;;;;;;;;5005665;28;20140;-71
2022/05/24 05:16:39;;;;;;;2.85;2.20;;;;;;;;;;4999591;28;20041;-72
2022/05/24 05:19:05;;;;;;;4.22;2.13;;;;;;;;;;5004203;28;20044;-73
2022/05/24 05:21:32;;;;;;;2.53;2.33;;;;;;;;;;5011276;28;20071;-70
2022/05/24 05:23:58;;;;;;;2.15;1.80;;;;;;;;;;5016718;28;20048;-78
2022/05/24 05:26:23;;;;;;;1.92;1.50;;;;;;;;;;5006639;28;20029;-73
2022/05/24 05:28:48;;;;;;;3.30;2.30;;;;;;;;;;5000332;28;20030;-72
2022/05/24 05:31:16;;;;;;;2.35;2.03;;;;;;;;;;5000809;28;20032;-72
2022/05/24 05:33:42;;;;;;;3.80;1.85;;;;;;;;;;5013433;28;20520;-77
2022/05/24 05:36:08;;;;;;;2.35;2.03;;;;;;;;;;5010407;28;20108;-73
2022/05/24 05:38:33;;;;;;;3.50;1.88;;;;;;;;;;4994525;28;20292;-73
2022/05/24 05:40:59;;;;;;;2.67;2.28;;;;;;;;;;5007493;28;20109;-71
2022/05/24 05:43:24;;;;;;;2.13;1.65;;;;;;;;;;5009085;28;20037;-73
2022/05/24 05:45:59;;;;;;;2.15;1.88;;;;;;;;;;5014853;28;20029;-72
2022/05/24 05:48:25;;;;;;;2.28;2.08;;;;;;;;;;4998616;28;20463;-68
2022/05/24 05:50:51;;;;;;;2.05;1.85;;;;;;;;;;5014501;28;20109;-74
2022/05/24 05:53:17;;;;;;;3.00;1.98;;;;;;;;;;5005196;28;20129;-75
2022/05/24 05:55:42;;;;;;;2.28;1.90;;;;;;;;;;5004664;28;20488;-72
2022/05/24 05:58:08;;;;;;;2.85;1.77;;;;;;;;;;5014039;28;20135;-75
2022/05/24 06:00:34;;;;;;;3.80;2.00;;;;;;;;;;5017772;28;20108;-77
2022/05/24 06:03:01;;;;;;;2.55;2.15;;;;;;;;;;5000178;28;20021;-72
2022/05/24 06:05:26;;;;;;;1.77;1.60;;;;;;;;;;4997507;28;20039;-71
2022/05/24 06:07:51;;;;;;;2.30;1.88;;;;;;;;;;5000492;28;20030;-71
2022/05/24 06:10:17;;;;;;;2.13;1.60;;;;;;;;;;5002490;28;20483;-71
2022/05/24 06:12:42;;;;;;;3.00;2.40;;;;;;;;;;5003111;28;20033;-76
2022/05/24 06:15:08;;;;;;;1.73;1.60;;;;;;;;;;5001524;28;20029;-73
2022/05/24 06:17:34;;;;;;;2.30;2.10;;;;;;;;;;5001149;28;20119;-75
2022/05/24 06:20:00;;;;;;;3.30;2.30;;;;;;;;;;4997623;28;20120;-73
2022/05/24 06:22:25;;;;;;;1.90;1.50;;;;;;;;;;5004226;28;20021;-72
2022/05/24 06:24:50;;;;;;;2.95;2.10;;;;;;;;;;4995289;28;20028;-73
2022/05/24 06:27:19;;;;;;;1.90;1.80;;;;;;;;;;4997467;28;20084;-71
2022/05/24 06:29:44;;;;;;;2.90;2.13;;;;;;;;;;4998773;28;20036;-71
2022/05/24 06:32:09;;;;;;;1.88;1.77;;;;;;;;;;4990560;28;20033;-71
2022/05/24 06:34:35;;;;;;;2.42;2.05;;;;;;;;;;4991799;28;20087;-72
2022/05/24 06:37:00;;;;;;;1.95;1.73;;;;;;;;;;4994850;28;20428;-70
2022/05/24 06:39:27;;;;;;;2.50;2.30;;;;;;;;;;4997844;28;20032;-71
2022/05/24 06:41:52;;;;;;;2.35;1.80;;;;;;;;;;4998674;28;20026;-77
2022/05/24 06:44:17;;;;;;;2.00;1.80;;;;;;;;;;4991795;28;20468;-74
2022/05/24 06:46:43;;;;;;;3.13;1.88;;;;;;;;;;4988800;28;20084;-71
2022/05/24 06:49:09;;;;;;;2.35;2.15;;;;;;;;;;5000884;28;20132;-73
2022/05/24 06:51:35;;;;;;;2.17;1.98;;;;;;;;;;4988960;28;20040;-71
2022/05/24 06:54:00;;;;;;;2.58;2.38;;;;;;;;;;4988040;28;20046;-74
2022/05/24 06:56:26;;;;;;;4.18;2.45;;;;;;;;;;4990581;28;20030;-71
2022/05/24 07:02:24;;;;;;;3.17;2.00;;;;;;;;;;4987855;28;20536;-75
2022/05/24 07:04:20;;;;;;;2.95;2.08;;;;;;;;;;4994239;28;20129;-77
2022/05/24 07:06:46;;;;;;;3.38;2.35;;;;;;;;;;4997570;28;20101;-70
2022/05/24 07:09:11;;;;;;;2.28;1.80;;;;;;;;;;4998600;28;20468;-70
2022/05/24 07:11:37;;;;;;;2.45;1.77;;;;;;;;;;4997640;28;20030;-73
2022/05/24 07:14:02;;;;;;;2.15;1.95;;;;;;;;;;4998703;28;20032;-77
2022/05/24 07:16:27;;;;;;;3.00;2.03;;;;;;;;;;4997746;28;20091;-73
2022/05/24 07:18:53;;;;;;;3.55;2.22;;;;;;;;;;4992487;28;20038;-72
2022/05/24 07:21:18;;;;;;;3.10;1.67;;;;;;;;;;4996734;28;20061;-75
2022/05/24 07:23:44;;;;;;;4.20;2.08;;;;;;;;;;4995848;28;20095;-72
2022/05/24 07:26:14;;;;;;;1.75;1.50;;;;;;;;;;4994174;28;20498;-73
2022/05/24 07:28:39;;;;;;;2.40;1.60;;;;;;;;;;5012763;28;20056;-76
2022/05/24 07:31:05;;;;;;;2.80;2.05;;;;;;;;;;5001639;28;20037;-76
2022/05/24 07:33:30;;;;;;;2.55;1.55;;;;;;;;;;5001287;28;20097;-71
2022/05/24 07:35:56;;;;;;;3.30;1.98;;;;;;;;;;5015926;28;20148;-73
2022/05/24 07:38:21;;;;;;;4.10;1.90;;;;;;;;;;5010069;28;20033;-74
2022/05/24 07:46:17;;;;;;;3.17;1.80;;;;;;;;;;4989988;28;20137;-74
2022/05/24 07:48:42;;;;;;;1.65;1.55;;;;;;;;;;5002406;28;20048;-76
2022/05/24 07:51:08;;;;;;;1.60;1.50;;;;;;;;;;5000614;28;20021;-71
2022/05/24 07:53:34;;;;;;;2.42;1.98;;;;;;;;;;5006047;28;20400;-75
2022/05/24 07:55:59;;;;;;;2.13;1.92;;;;;;;;;;5002583;28;20040;-76
2022/05/24 07:58:25;;;;;;;3.45;1.75;;;;;;;;;;5011794;28;20095;-72
2022/05/24 08:00:51;;;;;;;1.73;1.60;;;;;;;;;;5014075;28;20449;-73
2022/05/24 08:03:17;;;;;;;1.40;1.30;;;;;;;;;;5004201;28;20105;-72
2022/05/24 08:05:42;;;;;;;1.73;1.48;;;;;;;;;;5004100;28;20066;-71
2022/05/24 08:08:08;;;;;;;3.83;2.22;;;;;;;;;;5001130;28;20029;-71
2022/05/24 08:10:35;;;;;;;1.80;1.70;;;;;;;;;;5001386;28;20034;-70
2022/05/24 08:13:03;;;;;;;4.28;2.10;;;;;;;;;;4999892;28;20468;-71
2022/05/24 08:15:30;;;;;;;2.28;2.08;;;;;;;;;;5009449;28;20085;-70
2022/05/24 08:17:55;;;;;;;3.45;2.35;;;;;;;;;;5001547;28;20357;-71
2022/05/24 08:20:20;;;;;;;2.60;1.83;;;;;;;;;;5003902;28;20037;-71
2022/05/24 08:22:46;;;;;;;1.48;1.38;;;;;;;;;;5000796;28;20061;-73
2022/05/24 08:25:12;;;;;;;2.70;2.10;;;;;;;;;;4991364;28;20018;-72
2022/05/24 08:27:38;;;;;;;1.40;1.27;;;;;;;;;;4993596;28;20125;-74
2022/05/24 08:30:06;;;;;;;2.00;1.63;;;;;;;;;;5003495;28;20136;-76
2022/05/24 08:32:32;;;;;;;2.30;1.50;;;;;;;;;;5004728;28;20113;-73
2022/05/24 08:34:57;;;;;;;2.08;1.58;;;;;;;;;;4990242;28;20101;-75
2022/05/24 08:37:22;;;;;;;2.13;1.88;;;;;;;;;;4993933;28;20026;-75
2022/05/24 08:39:48;;;;;;;1.80;1.70;;;;;;;;;;4997986;28;20022;-72
2022/05/24 08:42:32;;;;;;;2.38;1.95;;;;;;;;;;5000818;28;20041;-75
2022/05/24 08:48:22;;;;;;;1.63;1.52;;;;;;;;;;4999449;28;20041;-73
2022/05/24 08:50:52;;;;;;;2.33;1.70;;;;;;;;;;4989395;28;20088;-71
2022/05/24 08:53:17;;;;;;;;;;;;;;;;;;5001376;28;20049;-76
2022/05/24 08:55:43;;;;;;;1.60;1.50;;;;;;;;;;5001242;28;20442;-76
2022/05/24 08:58:24;;;;;;;1.50;1.40;;;;;;;;;;4999049;28;20025;-71
2022/05/24 09:00:49;;;;;;;2.38;1.70;;;;;;;;;;5000100;28;20538;-77
2022/05/24 09:03:15;;;;;;;2.00;1.80;;;;;;;;;;5004005;28;20022;-74
2022/05/24 09:05:46;;;;;;;2.05;1.85;;;;;;;;;;5000790;28;20026;-77
2022/05/24 09:08:30;;;;;;;1.88;1.73;;;;;;;;;;5002250;28;20092;-74
2022/05/24 09:10:56;;;;;;;2.55;1.75;;;;;;;;;;4987203;28;20025;-76
2022/05/24 09:13:31;;;;;;;1.67;1.58;;;;;;;;;;5004649;28;20047;-74
2022/05/24 09:16:17;;;;;;;2.35;2.05;;;;;;;;;;5013176;28;20346;-73
2022/05/24 09:19:04;;;;;;;1.75;1.65;;;;;;;;;;5002152;28;20026;-76
2022/05/24 09:21:31;;;;;;;2.50;1.85;;;;;;;;;;4997668;28;20041;-74
2022/05/24 09:24:02;;;;;;;1.60;1.50;;;;;;;;;;5002527;28;20449;-77
2022/05/24 09:26:29;;;;;;;1.70;1.60;;;;;;;;;;5001124;28;20037;-75
2022/05/24 09:28:56;;;;;;;2.33;2.08;;;;;;;;;;4999725;28;20044;-76
2022/05/24 09:31:41;;;;;;;2.33;1.90;;;;;;;;;;5000705;28;20041;-76
2022/05/24 09:34:21;;;;;;;1.83;1.52;;;;;;;;;;5002096;28;20091;-79
2022/05/24 09:36:57;;;;;;;2.30;2.10;;;;;;;;;;5013162;28;20026;-77
2022/05/24 09:39:33;;;;;;;2.42;1.90;;;;;;;;;;5005284;28;20053;-77
2022/05/24 09:41:58;;;;;;;2.00;1.90;;;;;;;;;;5000168;28;20052;-75
2022/05/24 09:44:24;;;;;;;2.22;1.95;;;;;;;;;;5004480;28;20075;-76
2022/05/24 09:46:50;;;;;;;2.75;1.90;;;;;;;;;;5019095;28;20029;-75
2022/05/24 09:49:18;;;;;;;5.45;2.03;;;;;;;;;;5013757;28;20042;-76
2022/05/24 09:51:44;;;;;;;1.75;1.65;;;;;;;;;;5010768;28;20026;-75
2022/05/24 09:54:20;;;;;;;1.83;1.73;;;;;;;;;;5009869;28;20112;-75
2022/05/24 09:57:00;;;;;;;3.05;2.13;;;;;;;;;;5005112;28;20072;-74
2022/05/24 09:59:26;;;;;;;2.00;1.67;;;;;;;;;;5004305;28;20025;-76
2022/05/24 10:01:53;;;;;;;2.00;1.80;;;;;;;;;;5005596;28;20029;-75
2022/05/24 10:04:19;;;;;;;2.28;1.60;;;;;;;;;;5007904;28;20107;-75
2022/05/24 10:07:10;;;;;;;1.80;1.70;;;;;;;;;;5015965;28;20037;-76
2022/05/24 10:09:50;;;;;;;1.92;1.77;;;;;;;;;;4995456;28;20048;-76
2022/05/24 10:12:41;;;;;;;2.05;1.83;;;;;;;;;;5006039;28;20022;-76
2022/05/24 10:15:10;;;;;;;4.38;1.90;;;;;;;;;;5013392;28;20112;-75
2022/05/24 10:17:54;;;;;;;2.65;1.80;;;;;;;;;;5006433;28;20034;-75
2022/05/24 10:20:32;;;;;;;3.58;1.80;;;;;;;;;;5003105;28;20364;-74
2022/05/24 10:23:08;;;;;;;2.40;1.70;;;;;;;;;;5004503;28;20032;-76
2022/05/24 10:25:40;;;;;;;2.05;1.85;;;;;;;;;;5010117;28;20344;-75
2022/05/24 10:28:32;;;;;;;2.10;1.90;;;;;;;;;;5009126;28;20111;-77
2022/05/24 10:31:07;;;;;;;2.00;1.83;;;;;;;;;;5003672;28;20456;-76
2022/05/24 10:39:15;;;;;;;3.55;2.10;;;;;;;;;;5012268;28;20120;-76
2022/05/24 10:41:55;;;;;;;3.90;1.83;;;;;;;;;;5012805;28;20227;-77
2022/05/24 10:44:40;;;;;;;2.13;1.92;;;;;;;;;;5003438;28;20033;-75
2022/05/24 10:47:06;;;;;;;4.82;2.00;;;;;;;;;;5010573;28;20053;-75
2022/05/24 10:49:53;;;;;;;1.83;1.60;;;;;;;;;;5013385;28;20042;-76
2022/05/24 10:52:18;;;;;;;2.83;2.20;;;;;;;;;;5003780;28;20116;-76
2022/05/24 10:54:53;;;;;;;1.97;1.83;;;;;;;;;;5003966;28;20164;-75
2022/05/24 10:57:21;;;;;;;3.13;1.92;;;;;;;;;;5002757;28;20267;-75
2022/05/24 10:59:55;;;;;;;1.90;1.80;;;;;;;;;;5004481;28;20473;-77
2022/05/24 11:02:32;;;;;;;2.33;2.00;;;;;;;;;;5014167;28;20057;-75
2022/05/24 11:04:58;;;;;;;2.17;1.98;;;;;;;;;;5018398;28;20029;-75
2022/05/24 11:07:25;;;;;;;2.92;2.38;;;;;;;;;;5017775;28;20022;-75
2022/05/24 11:10:05;;;;;;;2.03;1.83;;;;;;;;;;5004645;28;20040;-77
2022/05/24 11:12:35;;;;;;;2.50;1.95;;;;;;;;;;5016305;28;20103;-76
2022/05/24 11:15:05;;;;;;;1.83;1.73;;;;;;;;;;5017187;28;20908;-76
2022/05/24 11:17:31;;;;;;;2.53;2.33;;;;;;;;;;5005409;28;20037;-77
2022/05/24 11:19:56;;;;;;;4.07;2.50;;;;;;;;;;5008501;28;20372;-76
2022/05/24 11:22:25;;;;;;;2.60;2.00;;;;;;;;;;5019377;28;20038;-75
2022/05/24 11:25:04;;;;;;;2.67;2.22;;;;;;;;;;5010395;28;20060;-77
2022/05/24 11:27:36;;;;;;;3.58;1.92;;;;;;;;;;5015211;28;20033;-76
2022/05/24 11:30:13;;;;;;;1.92;1.83;;;;;;;;;;5002210;28;20362;-75
2022/05/24 11:32:51;;;;;;;2.50;2.13;;;;;;;;;;5003267;28;20091;-75
2022/05/24 11:35:19;;;;;;;1.95;1.80;;;;;;;;;;5003013;28;20056;-75
2022/05/24 11:37:47;;;;;;;2.00;1.90;;;;;;;;;;5002057;28;20135;-75
2022/05/24 11:40:30;;;;;;;2.72;1.90;;;;;;;;;;5005061;28;20044;-78
2022/05/24 11:42:56;;;;;;;3.58;2.03;;;;;;;;;;5017831;28;20029;-76
2022/05/24 11:45:34;;;;;;;2.92;2.30;;;;;;;;;;5016035;28;20037;-77
2022/05/24 11:48:06;;;;;;;2.13;1.70;;;;;;;;;;5017330;28;20029;-75
2022/05/24 11:50:31;;;;;;;4.15;1.98;;;;;;;;;;5009662;28;20048;-75
2022/05/24 11:53:15;;;;;;;2.93;2.00;;;;;;;;;;5003352;28;20050;-75
2022/05/24 11:55:47;;;;;;;2.08;1.90;;;;;;;;;;5003877;28;20726;-77
2022/05/24 11:58:32;;;;;;;2.35;2.03;;;;;;;;;;5003147;28;20026;-79
2022/05/24 12:01:01;;;;;;;2.10;1.90;;;;;;;;;;4986098;28;20030;-76
2022/05/24 12:09:14;;;;;;;3.17;1.83;;;;;;;;;;5001150;28;20041;-74
2022/05/24 12:11:40;;;;;;;2.58;2.10;;;;;;;;;;5015739;28;20028;-75
2022/05/24 12:14:14;;;;;;;5.13;2.55;;;;;;;;;;5013222;28;20732;-75
2022/05/24 12:17:00;;;;;;;4.63;2.13;;;;;;;;;;5001042;28;20073;-75
2022/05/24 12:19:43;;;;;;;2.72;2.03;;;;;;;;;;4974395;28;20052;-75
2022/05/24 12:22:16;;;;;;;2.35;2.15;;;;;;;;;;5002144;28;20034;-79
2022/05/24 12:24:41;;;;;;;2.72;2.28;;;;;;;;;;5002268;28;20178;-75
2022/05/24 12:27:13;;;;;;;3.08;2.20;;;;;;;;;;5002456;28;20026;-74
2022/05/24 12:29:40;;;;;;;2.25;2.05;;;;;;;;;;5005361;28;20046;-74
2022/05/24 12:32:05;;;;;;;3.38;2.15;;;;;;;;;;5008800;28;20117;-77
2022/05/24 12:34:34;;;;;;;2.42;1.98;;;;;;;;;;5002035;28;20104;-76
2022/05/24 12:37:06;;;;;;;2.25;2.00;;;;;;;;;;5007775;28;20033;-76
2022/05/24 12:39:35;;;;;;;2.20;2.00;;;;;;;;;;5002874;28;20148;-74
2022/05/24 12:42:05;;;;;;;5.05;2.42;;;;;;;;;;5002652;28;20457;-77
2022/05/24 12:44:31;;;;;;;2.78;2.20;;;;;;;;;;5007692;28;20048;-76
2022/05/24 12:46:59;;;;;;;2.65;2.00;;;;;;;;;;5013817;28;20397;-74
2022/05/24 12:49:26;;;;;;;2.37;2.17;;;;;;;;;;5015343;28;20064;-75
2022/05/24 12:51:55;;;;;;;2.38;2.05;;;;;;;;;;5014313;28;20304;-75
2022/05/24 12:54:27;;;;;;;4.93;2.55;;;;;;;;;;5000921;28;20457;-75
2022/05/24 12:57:03;;;;;;;2.33;1.95;;;;;;;;;;4999812;28;20039;-74
2022/05/24 12:59:34;;;;;;;2.33;2.10;;;;;;;;;;5000966;28;20333;-80
2022/05/24 13:02:03;;;;;;;3.67;2.35;;;;;;;;;;5005021;28;20018;-76
2022/05/24 13:04:29;;;;;;;;;;;;;;;;;;5013881;28;20045;-75
2022/05/24 13:06:54;;;;;;;2.72;2.17;;;;;;;;;;5010116;28;19941;-76
2022/05/24 13:09:20;;;;;;;2.63;2.20;;;;;;;;;;5001863;28;20067;-74
2022/05/24 13:11:46;;;;;;;3.50;2.40;;;;;;;;;;5007558;28;20439;-74
2022/05/24 13:14:20;;;;;;;4.55;2.80;;;;;;;;;;5014860;28;20479;-78
2022/05/24 13:16:45;;;;;;;3.25;2.58;;;;;;;;;;5007084;28;20026;-74
2022/05/24 13:19:11;;;;;;;3.80;2.38;;;;;;;;;;4991642;28;20025;-75
2022/05/24 13:21:36;;;;;;;2.42;2.10;;;;;;;;;;5004803;28;20029;-74
2022/05/24 13:24:06;;;;;;;2.70;2.35;;;;;;;;;;5010263;28;20033;-74
2022/05/24 13:26:31;;;;;;;2.25;2.05;;;;;;;;;;4996082;28;20401;-76
2022/05/24 13:29:17;;;;;;;3.70;2.47;;;;;;;;;;5004828;28;20103;-75
2022/05/24 13:34:28;;;;;;;5.40;2.10;;;;;;;;;;5008247;28;20048;-78
2022/05/24 13:36:55;;;;;;;2.28;2.10;;;;;;;;;;5004990;28;20045;-77
2022/05/24 13:39:23;;;;;;;4.80;2.70;;;;;;;;;;5001326;28;20034;-78
2022/05/24 13:42:02;;;;;;;2.25;1.90;;;;;;;;;;4999878;28;20719;-75
2022/05/24 13:44:29;;;;;;;2.53;2.33;;;;;;;;;;5009726;28;20069;-75
2022/05/24 13:47:00;;;;;;;2.60;2.03;;;;;;;;;;4997549;28;20547;-77
2022/05/24 13:49:31;;;;;;;2.88;2.40;;;;;;;;;;4994740;28;20137;-78
2022/05/24 13:52:14;;;;;;;2.72;2.05;;;;;;;;;;5017276;28;20034;-75
2022/05/24 13:54:40;;;;;;;6.05;2.25;;;;;;;;;;4995456;28;20049;-78
2022/05/24 13:57:18;;;;;;;3.00;2.22;;;;;;;;;;4997409;28;20096;-76
2022/05/24 13:59:53;;;;;;;2.38;2.17;;;;;;;;;;5010763;28;20105;-75
2022/05/24 14:02:21;;;;;;;2.20;2.00;;;;;;;;;;5017293;28;20034;-75
2022/05/24 14:04:46;;;;;;;4.07;1.95;;;;;;;;;;5019021;28;20129;-76
2022/05/24 14:07:12;;;;;;;3.22;2.17;;;;;;;;;;5019089;28;20485;-74
2022/05/24 14:09:38;;;;;;;2.40;2.20;;;;;;;;;;5000486;28;20056;-79
2022/05/24 14:12:04;;;;;;;3.53;2.58;;;;;;;;;;4991519;28;20042;-76
2022/05/24 14:14:34;;;;;;;2.38;2.15;;;;;;;;;;5003600;28;20971;-75
2022/05/24 14:17:00;;;;;;;2.25;2.05;;;;;;;;;;4993488;28;20029;-76
2022/05/24 14:19:26;;;;;;;2.70;2.00;;;;;;;;;;5008753;28;20033;-75
2022/05/24 14:21:54;;;;;;;2.10;1.95;;;;;;;;;;5017581;28;20044;-77
2022/05/24 14:24:21;;;;;;;4.10;2.08;;;;;;;;;;5007902;28;20120;-78
2022/05/24 14:26:48;;;;;;;3.38;1.80;;;;;;;;;;5007419;28;20064;-77
2022/05/24 14:29:14;;;;;;;2.42;2.03;;;;;;;;;;5018370;28;20038;-75
2022/05/24 14:31:40;;;;;;;2.03;1.90;;;;;;;;;;4998287;28;20036;-76
2022/05/24 14:34:08;;;;;;;3.83;2.20;;;;;;;;;;4983566;28;20033;-75
2022/05/24 14:36:34;;;;;;;1.83;1.67;;;;;;;;;;4995773;28;20095;-75
2022/05/24 14:38:59;;;;;;;1.90;1.80;;;;;;;;;;4992866;28;20365;-75
2022/05/24 14:41:25;;;;;;;3.85;2.20;;;;;;;;;;4990490;28;20500;-76
2022/05/24 14:43:52;;;;;;;2.55;2.00;;;;;;;;;;5013374;28;20037;-76
2022/05/24 14:46:18;;;;;;;2.72;1.77;;;;;;;;;;5004266;28;20034;-73
2022/05/24 14:48:43;;;;;;;2.50;2.30;;;;;;;;;;5004006;28;20049;-75
2022/05/24 14:51:10;;;;;;;3.97;1.90;;;;;;;;;;5004137;28;20060;-74
2022/05/24 14:53:37;;;;;;;1.67;1.58;;;;;;;;;;5007207;28;20061;-75
2022/05/24 14:56:02;;;;;;;4.55;1.70;;;;;;;;;;5007789;28;20071;-73
2022/05/24 14:58:27;;;;;;;3.28;2.05;;;;;;;;;;5003628;28;20026;-75
2022/05/24 15:00:53;;;;;;;3.75;1.90;;;;;;;;;;4990840;28;20075;-76
2022/05/24 15:03:18;;;;;;;2.30;2.10;;;;;;;;;;4989193;28;20115;-77
2022/05/24 15:05:43;;;;;;;2.47;2.20;;;;;;;;;;5003723;28;20034;-79
2022/05/24 15:16:22;;;;;;;2.03;1.83;;;;;;;;;;5001379;28;20113;-78
2022/05/24 15:18:48;;;;;;;2.63;2.17;;;;;;;;;;5002991;28;20120;-77
2022/05/24 15:21:15;;;;;;;2.65;2.30;;;;;;;;;;4995297;28;20061;-78
2022/05/24 15:23:42;;;;;;;2.35;2.00;;;;;;;;;;4996285;28;20025;-76
2022/05/24 15:26:09;;;;;;;2.42;2.13;;;;;;;;;;4997822;28;20021;-78
2022/05/24 15:28:38;;;;;;;2.17;1.98;;;;;;;;;;5001372;28;20484;-75
2022/05/24 15:31:03;;;;;;;2.70;1.92;;;;;;;;;;5005214;28;20032;-78
2022/05/24 15:33:28;;;;;;;2.55;1.85;;;;;;;;;;4963383;28;20025;-76
2022/05/24 15:35:54;;;;;;;2.90;1.88;;;;;;;;;;4986922;28;20032;-75
2022/05/24 15:38:20;;;;;;;3.03;1.83;;;;;;;;;;4987533;28;20034;-77